joomla templates top joomla templates template joomla

King Air Abend

Notam

C3641/14 - CUSTOMS AVBL PPR, TEL 0049 9561 92098. 13 NOV 14:46 2014 UNTIL PERM. CREATED: 13 NOV 14:47 2014

Neue Wetteranzeige

ACHTUNG ! Service im Testbetrieb !


Aktuelles Platzwetter 3.12.2016 02:21Z

AvgMinMax
Windrichtung8070100Deg
Windgeschwindigkeit112kt
Sichtweite>10000m
Temperatur-2°C
Taupunkt-2°C
Feuchte98%
QNH1023.0hPa
QFE969.2hPa
WolkenSKC


801 kt

Aerodrome Terminal Information Service (ATIS) Coburg

METAR
EDQC 030150Z AUTO VRB01KT CAVOK M02/M03 Q1023=

METAR und TAF der Umgebung

[Quelle: ADDS]
METAR
EDDF 030150Z 07007KT CAVOK M03/M04 Q1024 NOSIG =
EDDN 030150Z 00000KT 0200 R28/0500N FZFG VV/// M03/M03 Q1023 R28/29//95 =
EDDE 030150Z 22007KT CAVOK M05/M05 Q1023 =
TAF
EDDF 022300Z 0300/0406 04006KT CAVOK =
EDDN 022300Z 0300/0324 VRB02KT 0200 FZFG OVC001 BECMG 0308/0310 4000 BR BKN003 BECMG 0310/0312 08005KT 9999 FEW010 =
EDDE 022300Z 0300/0324 23003KT CAVOK PROB30 TEMPO 0303/0309 4000 BR =
SR / SS: 06:58 / 15:16 UTC (EDQC 2016-12-03)

Windvorhersage

Verkehrslandeplatz Coburg Brandensteinsebene
Tower
Zur Brandensteinsebene
96450 Coburg

AeroClub Logo 200px

Aero Club Coburg e. V.
Postfach 11 09
96401 Coburg